sensor_id;sensor_type;location;lat;lon;timestamp;pressure;altitude;pressure_sealevel;temperature;humidity
54806;BME280;62866;55.776;37.496;2022-10-23T00:01:23;99909.53;;;6.56;78.91
54806;BME280;62866;55.776;37.496;2022-10-23T00:03:52;99908.53;;;6.57;79.30
54806;BME280;62866;55.776;37.496;2022-10-23T00:06:18;99909.34;;;6.49;79.00
54806;BME280;62866;55.776;37.496;2022-10-23T00:08:47;99903.34;;;6.47;79.08
54806;BME280;62866;55.776;37.496;2022-10-23T00:11:16;99897.34;;;6.45;79.14
54806;BME280;62866;55.776;37.496;2022-10-23T00:13:43;99904.16;;;6.39;79.38
54806;BME280;62866;55.776;37.496;2022-10-23T00:16:09;99898.16;;;6.37;79.56
54806;BME280;62866;55.776;37.496;2022-10-23T00:18:35;99894.00;;;6.35;79.71
54806;BME280;62866;55.776;37.496;2022-10-23T00:21:02;99893.84;;;6.36;79.40
54806;BME280;62866;55.776;37.496;2022-10-23T00:23:28;99879.38;;;6.31;79.25
54806;BME280;62866;55.776;37.496;2022-10-23T00:25:53;99884.88;;;6.37;79.63
54806;BME280;62866;55.776;37.496;2022-10-23T00:28:19;99880.25;;;6.39;79.30
54806;BME280;62866;55.776;37.496;2022-10-23T00:30:44;99873.94;;;6.40;79.29
54806;BME280;62866;55.776;37.496;2022-10-23T00:33:10;99864.31;;;6.39;79.12
54806;BME280;62866;55.776;37.496;2022-10-23T00:35:39;99863.50;;;6.47;79.18
54806;BME280;62866;55.776;37.496;2022-10-23T00:38:06;99865.50;;;6.45;78.81
54806;BME280;62866;55.776;37.496;2022-10-23T00:40:32;99868.16;;;6.45;78.67
54806;BME280;62866;55.776;37.496;2022-10-23T00:42:57;99846.00;;;6.28;79.01
54806;BME280;62866;55.776;37.496;2022-10-23T00:45:29;99851.19;;;6.38;79.09
54806;BME280;62866;55.776;37.496;2022-10-23T00:48:01;99853.69;;;6.39;79.12
54806;BME280;62866;55.776;37.496;2022-10-23T00:50:29;99851.34;;;6.36;78.96
54806;BME280;62866;55.776;37.496;2022-10-23T00:52:59;99847.22;;;6.34;78.99
54806;BME280;62866;55.776;37.496;2022-10-23T00:55:25;99845.53;;;6.33;78.81
54806;BME280;62866;55.776;37.496;2022-10-23T00:57:52;99844.69;;;6.32;78.75
54806;BME280;62866;55.776;37.496;2022-10-23T01:00:23;99839.69;;;6.29;78.77
54806;BME280;62866;55.776;37.496;2022-10-23T01:02:49;99833.06;;;6.25;78.68
54806;BME280;62866;55.776;37.496;2022-10-23T01:05:16;99829.72;;;6.23;78.87
54806;BME280;62866;55.776;37.496;2022-10-23T01:13:12;99827.75;;;6.25;78.65
54806;BME280;62866;55.776;37.496;2022-10-23T01:16:03;99819.59;;;6.19;78.41
54806;BME280;62866;55.776;37.496;2022-10-23T01:18:41;99831.22;;;6.18;78.65
54806;BME280;62866;55.776;37.496;2022-10-23T01:21:13;99832.00;;;6.10;79.17
54806;BME280;62866;55.776;37.496;2022-10-23T01:24:11;99823.00;;;6.03;79.09
54806;BME280;62866;55.776;37.496;2022-10-23T01:35:11;99806.94;;;5.87;79.06
54806;BME280;62866;55.776;37.496;2022-10-23T01:37:44;99808.44;;;5.81;79.13
54806;BME280;62866;55.776;37.496;2022-10-23T01:40:32;99805.09;;;5.79;79.21
54806;BME280;62866;55.776;37.496;2022-10-23T01:43:04;99803.59;;;5.77;78.94
54806;BME280;62866;55.776;37.496;2022-10-23T01:45:39;99806.22;;;5.68;79.13
54806;BME280;62866;55.776;37.496;2022-10-23T01:48:10;99808.97;;;5.59;79.65
54806;BME280;62866;55.776;37.496;2022-10-23T01:50:39;99801.06;;;5.41;79.72
54806;BME280;62866;55.776;37.496;2022-10-23T01:53:06;99800.47;;;5.29;79.76
54806;BME280;62866;55.776;37.496;2022-10-23T01:55:32;99796.41;;;5.17;80.55
54806;BME280;62866;55.776;37.496;2022-10-23T01:57:59;99810.44;;;5.10;80.79
54806;BME280;62866;55.776;37.496;2022-10-23T02:00:26;99802.41;;;5.02;80.84
54806;BME280;62866;55.776;37.496;2022-10-23T02:02:53;99797.03;;;4.93;80.79
54806;BME280;62866;55.776;37.496;2022-10-23T02:05:23;99796.78;;;4.87;81.18
54806;BME280;62866;55.776;37.496;2022-10-23T02:07:50;99794.47;;;4.84;81.57
54806;BME280;62866;55.776;37.496;2022-10-23T02:10:16;99797.25;;;4.82;81.54
54806;BME280;62866;55.776;37.496;2022-10-23T02:13:04;99785.16;;;4.80;81.52
54806;BME280;62866;55.776;37.496;2022-10-23T02:16:04;99792.59;;;4.76;81.33
54806;BME280;62866;55.776;37.496;2022-10-23T02:21:35;99786.88;;;4.71;81.35
54806;BME280;62866;55.776;37.496;2022-10-23T02:24:12;99786.88;;;4.71;81.67
54806;BME280;62866;55.776;37.496;2022-10-23T02:26:51;99784.56;;;4.68;81.74
54806;BME280;62866;55.776;37.496;2022-10-23T02:29:23;99774.53;;;4.62;81.32
54806;BME280;62866;55.776;37.496;2022-10-23T02:31:50;99778.19;;;4.61;81.73
54806;BME280;62866;55.776;37.496;2022-10-23T02:34:17;99775.16;;;4.56;82.35
54806;BME280;62866;55.776;37.496;2022-10-23T02:36:42;99788.41;;;4.56;82.70
54806;BME280;62866;55.776;37.496;2022-10-23T02:39:08;99770.31;;;4.51;83.08
54806;BME280;62866;55.776;37.496;2022-10-23T02:41:38;99778.09;;;4.53;83.23
54806;BME280;62866;55.776;37.496;2022-10-23T02:44:21;99777.44;;;4.51;82.98
54806;BME280;62866;55.776;37.496;2022-10-23T02:57:45;99765.66;;;4.36;82.78
54806;BME280;62866;55.776;37.496;2022-10-23T03:00:16;99765.00;;;4.34;82.91
54806;BME280;62866;55.776;37.496;2022-10-23T03:03:40;99752.63;;;4.34;83.16
54806;BME280;62866;55.776;37.496;2022-10-23T03:05:45;99761.69;;;4.32;83.19
54806;BME280;62866;55.776;37.496;2022-10-23T03:08:12;99765.28;;;4.31;83.58
54806;BME280;62866;55.776;37.496;2022-10-23T03:10:39;99751.00;;;4.24;83.21
54806;BME280;62866;55.776;37.496;2022-10-23T03:13:05;99756.00;;;4.27;83.42
54806;BME280;62866;55.776;37.496;2022-10-23T03:15:31;99742.09;;;4.25;83.72
54806;BME280;62866;55.776;37.496;2022-10-23T03:17:56;99717.41;;;4.06;83.72
54806;BME280;62866;55.776;37.496;2022-10-23T03:20:22;99742.22;;;4.23;83.76
54806;BME280;62866;55.776;37.496;2022-10-23T03:22:47;99739.88;;;4.20;83.93
54806;BME280;62866;55.776;37.496;2022-10-23T03:25:13;99726.88;;;4.09;83.83
54806;BME280;62866;55.776;37.496;2022-10-23T03:27:39;99736.00;;;4.14;83.58
54806;BME280;62866;55.776;37.496;2022-10-23T03:30:05;99738.81;;;4.13;83.45
54806;BME280;62866;55.776;37.496;2022-10-23T03:32:31;99735.31;;;4.12;83.96
54806;BME280;62866;55.776;37.496;2022-10-23T03:34:57;99737.97;;;4.12;84.16
54806;BME280;62866;55.776;37.496;2022-10-23T03:37:22;99742.44;;;4.12;84.25
54806;BME280;62866;55.776;37.496;2022-10-23T03:39:48;99738.28;;;4.09;83.72
54806;BME280;62866;55.776;37.496;2022-10-23T03:42:13;99733.28;;;4.06;84.34
54806;BME280;62866;55.776;37.496;2022-10-23T03:44:39;99733.28;;;4.06;84.12
54806;BME280;62866;55.776;37.496;2022-10-23T03:47:04;99725.63;;;4.03;84.23
54806;BME280;62866;55.776;37.496;2022-10-23T03:49:30;99706.34;;;3.93;84.48
54806;BME280;62866;55.776;37.496;2022-10-23T03:51:55;99724.97;;;4.01;84.44
54806;BME280;62866;55.776;37.496;2022-10-23T03:54:22;99725.78;;;4.02;84.28
54806;BME280;62866;55.776;37.496;2022-10-23T03:56:49;99724.28;;;3.99;84.44
54806;BME280;62866;55.776;37.496;2022-10-23T03:59:14;99710.06;;;4.00;84.41
54806;BME280;62866;55.776;37.496;2022-10-23T04:01:40;99717.31;;;3.98;84.33
54806;BME280;62866;55.776;37.496;2022-10-23T04:04:05;99712.03;;;3.98;84.83
54806;BME280;62866;55.776;37.496;2022-10-23T04:06:31;99711.19;;;3.98;84.55
54806;BME280;62866;55.776;37.496;2022-10-23T04:08:56;99705.53;;;3.93;84.58
54806;BME280;62866;55.776;37.496;2022-10-23T04:11:22;99689.72;;;3.83;84.17
54806;BME280;62866;55.776;37.496;2022-10-23T04:13:47;99708.16;;;3.93;84.37
54806;BME280;62866;55.776;37.496;2022-10-23T04:16:13;99717.22;;;3.90;84.43
54806;BME280;62866;55.776;37.496;2022-10-23T04:18:40;99714.59;;;3.90;84.88
54806;BME280;62866;55.776;37.496;2022-10-23T04:21:05;99711.25;;;3.88;85.13
54806;BME280;62866;55.776;37.496;2022-10-23T04:23:31;99707.25;;;3.84;85.12
54806;BME280;62866;55.776;37.496;2022-10-23T04:25:57;99709.91;;;3.84;85.65
54806;BME280;62866;55.776;37.496;2022-10-23T04:28:23;99694.91;;;3.75;85.20
54806;BME280;62866;55.776;37.496;2022-10-23T04:30:49;99698.31;;;3.85;85.70
54806;BME280;62866;55.776;37.496;2022-10-23T04:33:14;99695.50;;;3.87;85.30
54806;BME280;62866;55.776;37.496;2022-10-23T04:35:40;99697.41;;;3.94;85.20
54806;BME280;62866;55.776;37.496;2022-10-23T04:38:05;99695.31;;;3.98;85.74
54806;BME280;62866;55.776;37.496;2022-10-23T04:40:31;99695.78;;;4.11;85.40
54806;BME280;62866;55.776;37.496;2022-10-23T04:42:56;99700.44;;;4.27;84.57
54806;BME280;62866;55.776;37.496;2022-10-23T04:45:22;99682.19;;;4.24;84.78
54806;BME280;62866;55.776;37.496;2022-10-23T04:47:48;99695.03;;;4.36;84.45
54806;BME280;62866;55.776;37.496;2022-10-23T04:50:14;99692.31;;;4.46;84.42
54806;BME280;62866;55.776;37.496;2022-10-23T04:52:39;99691.25;;;4.74;83.94
54806;BME280;62866;55.776;37.496;2022-10-23T04:55:06;99683.78;;;4.95;83.44
54806;BME280;62866;55.776;37.496;2022-10-23T04:57:32;99685.56;;;5.13;82.77
54806;BME280;62866;55.776;37.496;2022-10-23T04:59:57;99677.38;;;5.32;82.02
54806;BME280;62866;55.776;37.496;2022-10-23T05:02:23;99681.84;;;5.31;81.79
54806;BME280;62866;55.776;37.496;2022-10-23T05:04:49;99687.03;;;5.41;81.81
54806;BME280;62866;55.776;37.496;2022-10-23T05:07:15;99691.97;;;5.36;82.00
54806;BME280;62866;55.776;37.496;2022-10-23T05:09:41;99698.06;;;5.28;82.29
54806;BME280;62866;55.776;37.496;2022-10-23T05:12:06;99701.50;;;5.21;82.86
54806;BME280;62866;55.776;37.496;2022-10-23T05:14:32;99692.56;;;5.22;83.03
54806;BME280;62866;55.776;37.496;2022-10-23T05:17:01;99690.59;;;5.24;82.70
54806;BME280;62866;55.776;37.496;2022-10-23T05:19:37;99691.09;;;5.27;82.10
54806;BME280;62866;55.776;37.496;2022-10-23T05:22:04;99698.25;;;5.27;81.10
54806;BME280;62866;55.776;37.496;2022-10-23T05:24:30;99699.53;;;5.23;81.78
54806;BME280;62866;55.776;37.496;2022-10-23T05:26:56;99697.41;;;5.26;81.66
54806;BME280;62866;55.776;37.496;2022-10-23T05:29:22;99688.66;;;5.34;81.49
54806;BME280;62866;55.776;37.496;2022-10-23T05:31:49;99686.66;;;5.36;81.21
54806;BME280;62866;55.776;37.496;2022-10-23T05:34:19;99689.06;;;5.47;81.33
54806;BME280;62866;55.776;37.496;2022-10-23T05:36:46;99690.75;;;5.56;81.00
54806;BME280;62866;55.776;37.496;2022-10-23T05:39:12;99685.81;;;5.61;81.35
54806;BME280;62866;55.776;37.496;2022-10-23T05:41:37;99686.34;;;5.73;80.79
54806;BME280;62866;55.776;37.496;2022-10-23T05:44:03;99686.19;;;5.75;80.54
54806;BME280;62866;55.776;37.496;2022-10-23T05:46:28;99676.06;;;5.70;80.99
54806;BME280;62866;55.776;37.496;2022-10-23T05:48:54;99677.28;;;5.84;79.85
54806;BME280;62866;55.776;37.496;2022-10-23T05:51:20;99680.16;;;5.90;79.69
54806;BME280;62866;55.776;37.496;2022-10-23T05:53:49;99675.53;;;6.00;79.63
54806;BME280;62866;55.776;37.496;2022-10-23T05:56:15;99678.19;;;6.00;78.86
54806;BME280;62866;55.776;37.496;2022-10-23T05:58:41;99677.38;;;6.00;78.25
54806;BME280;62866;55.776;37.496;2022-10-23T06:01:09;99674.38;;;6.03;78.21
54806;BME280;62866;55.776;37.496;2022-10-23T06:03:36;99671.53;;;5.96;78.03
54806;BME280;62866;55.776;37.496;2022-10-23T06:06:03;99659.53;;;5.84;77.84
54806;BME280;62866;55.776;37.496;2022-10-23T06:08:30;99673.78;;;5.75;78.53
54806;BME280;62866;55.776;37.496;2022-10-23T06:10:56;99657.16;;;5.65;78.75
54806;BME280;62866;55.776;37.496;2022-10-23T06:13:21;99650.03;;;5.65;79.06
54806;BME280;62866;55.776;37.496;2022-10-23T06:15:47;99655.19;;;5.67;78.71
54806;BME280;62866;55.776;37.496;2022-10-23T06:18:13;99647.91;;;5.77;79.11
54806;BME280;62866;55.776;37.496;2022-10-23T06:20:38;99647.63;;;5.88;78.44
54806;BME280;62866;55.776;37.496;2022-10-23T06:23:04;99647.31;;;5.91;79.01
54806;BME280;62866;55.776;37.496;2022-10-23T06:25:30;99637.22;;;6.03;79.08
54806;BME280;62866;55.776;37.496;2022-10-23T06:27:56;99631.59;;;6.22;78.73
54806;BME280;62866;55.776;37.496;2022-10-23T06:30:22;99629.94;;;6.37;77.68
54806;BME280;62866;55.776;37.496;2022-10-23T06:32:48;99630.94;;;6.36;77.31
54806;BME280;62866;55.776;37.496;2022-10-23T06:35:13;99629.13;;;6.37;76.77
54806;BME280;62866;55.776;37.496;2022-10-23T06:37:39;99625.00;;;6.34;76.68
54806;BME280;62866;55.776;37.496;2022-10-23T06:40:05;99617.19;;;6.33;76.78
54806;BME280;62866;55.776;37.496;2022-10-23T06:42:32;99617.84;;;6.35;76.65
54806;BME280;62866;55.776;37.496;2022-10-23T06:44:57;99596.44;;;6.28;76.53
54806;BME280;62866;55.776;37.496;2022-10-23T06:47:23;99612.19;;;6.46;76.64
54806;BME280;62866;55.776;37.496;2022-10-23T06:49:48;99607.88;;;6.61;76.31
54806;BME280;62866;55.776;37.496;2022-10-23T06:52:14;99606.22;;;6.76;75.79
54806;BME280;62866;55.776;37.496;2022-10-23T06:54:39;99608.16;;;6.99;75.48
54806;BME280;62866;55.776;37.496;2022-10-23T06:57:05;99608.63;;;7.10;74.31
54806;BME280;62866;55.776;37.496;2022-10-23T06:59:30;99604.47;;;7.08;74.23
54806;BME280;62866;55.776;37.496;2022-10-23T07:01:56;99594.84;;;7.07;74.28
54806;BME280;62866;55.776;37.496;2022-10-23T07:04:21;99606.94;;;7.17;74.56
54806;BME280;62866;55.776;37.496;2022-10-23T07:06:47;99591.94;;;7.24;74.70
54806;BME280;62866;55.776;37.496;2022-10-23T07:09:12;99586.09;;;7.29;74.70
54806;BME280;62866;55.776;37.496;2022-10-23T07:11:38;99581.53;;;7.46;74.45
54806;BME280;62866;55.776;37.496;2022-10-23T07:14:03;99573.09;;;7.42;73.76
54806;BME280;62866;55.776;37.496;2022-10-23T07:16:29;99571.31;;;7.35;73.43
54806;BME280;62866;55.776;37.496;2022-10-23T07:18:57;99577.50;;;7.27;73.48
54806;BME280;62866;55.776;37.496;2022-10-23T07:21:24;99579.34;;;7.18;73.80
54806;BME280;62866;55.776;37.496;2022-10-23T07:23:50;99579.72;;;7.07;74.08
54806;BME280;62866;55.776;37.496;2022-10-23T07:35:58;99572.88;;;7.52;74.14
54806;BME280;62866;55.776;37.496;2022-10-23T07:38:24;99567.97;;;7.63;73.64
54806;BME280;62866;55.776;37.496;2022-10-23T07:40:51;99565.88;;;7.59;72.99
54806;BME280;62866;55.776;37.496;2022-10-23T07:43:18;99571.13;;;7.67;73.38
54806;BME280;62866;55.776;37.496;2022-10-23T07:45:48;99550.19;;;7.64;73.23
54806;BME280;62866;55.776;37.496;2022-10-23T07:48:15;99560.63;;;7.74;73.13
54806;BME280;62866;55.776;37.496;2022-10-23T07:50:41;99553.22;;;7.61;73.10
54806;BME280;62866;55.776;37.496;2022-10-23T07:53:07;99554.44;;;7.50;73.48
54806;BME280;62866;55.776;37.496;2022-10-23T07:55:35;99550.78;;;7.51;73.81
54806;BME280;62866;55.776;37.496;2022-10-23T07:58:00;99562.91;;;7.46;73.59
54806;BME280;62866;55.776;37.496;2022-10-23T08:00:26;99558.50;;;7.30;74.07
54806;BME280;62866;55.776;37.496;2022-10-23T08:02:51;99550.75;;;7.20;74.51
54806;BME280;62866;55.776;37.496;2022-10-23T08:05:20;99558.53;;;7.22;74.88
54806;BME280;62866;55.776;37.496;2022-10-23T08:07:45;99550.88;;;7.35;74.61
54806;BME280;62866;55.776;37.496;2022-10-23T08:10:11;99552.94;;;7.48;74.41
54806;BME280;62866;55.776;37.496;2022-10-23T08:12:37;99558.06;;;7.57;74.27
54806;BME280;62866;55.776;37.496;2022-10-23T08:15:03;99564.50;;;7.63;74.07
54806;BME280;62866;55.776;37.496;2022-10-23T08:17:28;99556.56;;;7.55;73.76
54806;BME280;62866;55.776;37.496;2022-10-23T08:19:54;99555.81;;;7.38;74.26
54806;BME280;62866;55.776;37.496;2022-10-23T08:22:19;99556.84;;;7.29;74.97
54806;BME280;62866;55.776;37.496;2022-10-23T08:24:45;99559.03;;;7.26;75.40
54806;BME280;62866;55.776;37.496;2022-10-23T08:27:10;99544.78;;;7.18;75.44
54806;BME280;62866;55.776;37.496;2022-10-23T08:29:36;99549.59;;;7.15;75.80
54806;BME280;62866;55.776;37.496;2022-10-23T08:32:01;99543.97;;;7.18;75.99
54806;BME280;62866;55.776;37.496;2022-10-23T08:34:27;99544.25;;;7.23;75.91
54806;BME280;62866;55.776;37.496;2022-10-23T08:36:53;99544.13;;;7.16;76.03
54806;BME280;62866;55.776;37.496;2022-10-23T08:39:18;99543.78;;;7.11;76.24
54806;BME280;62866;55.776;37.496;2022-10-23T08:41:49;99542.66;;;7.06;76.72
54806;BME280;62866;55.776;37.496;2022-10-23T08:47:04;99550.38;;;6.93;77.21
54806;BME280;62866;55.776;37.496;2022-10-23T08:50:02;99541.25;;;6.79;77.86
54806;BME280;62866;55.776;37.496;2022-10-23T08:55:17;99542.47;;;6.68;78.35
54806;BME280;62866;55.776;37.496;2022-10-23T08:58:11;99531.81;;;6.76;78.36
54806;BME280;62866;55.776;37.496;2022-10-23T09:00:45;99525.84;;;6.74;78.39
54806;BME280;62866;55.776;37.496;2022-10-23T09:03:11;99534.78;;;6.73;78.57
54806;BME280;62866;55.776;37.496;2022-10-23T09:08:49;99526.31;;;6.70;78.83
54806;BME280;62866;55.776;37.496;2022-10-23T09:11:32;99517.56;;;6.69;79.01
54806;BME280;62866;55.776;37.496;2022-10-23T09:19:23;99512.78;;;6.96;78.74
54806;BME280;62866;55.776;37.496;2022-10-23T09:21:54;99505.47;;;6.98;78.51
54806;BME280;62866;55.776;37.496;2022-10-23T09:24:22;99513.00;;;6.94;78.89
54806;BME280;62866;55.776;37.496;2022-10-23T09:26:50;99501.66;;;7.00;78.69
54806;BME280;62866;55.776;37.496;2022-10-23T09:29:28;99502.09;;;7.12;78.63
54806;BME280;62866;55.776;37.496;2022-10-23T09:31:56;99506.91;;;7.16;78.45
54806;BME280;62866;55.776;37.496;2022-10-23T09:34:27;99495.28;;;7.17;78.33
54806;BME280;62866;55.776;37.496;2022-10-23T09:36:57;99487.63;;;7.14;78.43
54806;BME280;62866;55.776;37.496;2022-10-23T09:39:32;99491.66;;;7.10;78.58
54806;BME280;62866;55.776;37.496;2022-10-23T09:42:23;99485.19;;;7.05;78.69
54806;BME280;62866;55.776;37.496;2022-10-23T09:44:51;99484.34;;;7.04;78.92
54806;BME280;62866;55.776;37.496;2022-10-23T09:47:19;99480.84;;;7.04;78.93
54806;BME280;62866;55.776;37.496;2022-10-23T09:49:54;99485.63;;;7.16;79.19
54806;BME280;62866;55.776;37.496;2022-10-23T09:54:59;99481.38;;;7.30;78.40
54806;BME280;62866;55.776;37.496;2022-10-23T09:57:43;99478.59;;;7.23;78.63
54806;BME280;62866;55.776;37.496;2022-10-23T10:00:18;99474.47;;;7.21;78.85
54806;BME280;62866;55.776;37.496;2022-10-23T10:03:04;99478.78;;;7.22;79.17
54806;BME280;62866;55.776;37.496;2022-10-23T10:05:38;99476.94;;;7.22;79.25
54806;BME280;62866;55.776;37.496;2022-10-23T10:08:27;99468.63;;;7.26;79.19
54806;BME280;62866;55.776;37.496;2022-10-23T10:28:06;99455.81;;;6.98;81.21
54806;BME280;62866;55.776;37.496;2022-10-23T10:30:51;99434.72;;;6.97;81.10
54806;BME280;62866;55.776;37.496;2022-10-23T10:33:30;99455.34;;;7.26;80.60
54806;BME280;62866;55.776;37.496;2022-10-23T10:38:49;99444.69;;;7.26;80.00
54806;BME280;62866;55.776;37.496;2022-10-23T10:47:12;99425.50;;;6.84;81.48
54806;BME280;62866;55.776;37.496;2022-10-23T10:49:42;99411.75;;;6.73;82.16
54806;BME280;62866;55.776;37.496;2022-10-23T10:52:38;99420.25;;;6.68;82.17
54806;BME280;62866;55.776;37.496;2022-10-23T10:55:42;99419.59;;;6.66;82.26
54806;BME280;62866;55.776;37.496;2022-10-23T10:58:27;99412.44;;;6.67;82.40
54806;BME280;62866;55.776;37.496;2022-10-23T11:00:58;99407.59;;;6.70;82.62
54806;BME280;62866;55.776;37.496;2022-10-23T11:06:05;99413.41;;;6.74;82.76
54806;BME280;62866;55.776;37.496;2022-10-23T11:08:36;99404.06;;;6.78;83.00
54806;BME280;62866;55.776;37.496;2022-10-23T11:11:06;99394.28;;;6.78;82.94
54806;BME280;62866;55.776;37.496;2022-10-23T11:13:41;99392.78;;;6.84;83.00
54806;BME280;62866;55.776;37.496;2022-10-23T11:16:12;99389.75;;;6.87;83.04
54806;BME280;62866;55.776;37.496;2022-10-23T11:18:47;99385.41;;;6.94;82.97
54806;BME280;62866;55.776;37.496;2022-10-23T11:21:31;99387.53;;;6.99;82.84
54806;BME280;62866;55.776;37.496;2022-10-23T11:30:00;99374.22;;;6.76;83.44
54806;BME280;62866;55.776;37.496;2022-10-23T11:38:08;99366.91;;;6.70;84.19
54806;BME280;62866;55.776;37.496;2022-10-23T11:40:50;99365.97;;;6.63;84.91
54806;BME280;62866;55.776;37.496;2022-10-23T11:45:56;99361.06;;;6.52;85.10
54806;BME280;62866;55.776;37.496;2022-10-23T11:48:40;99358.41;;;6.52;85.20
54806;BME280;62866;55.776;37.496;2022-10-23T11:53:50;99356.50;;;6.68;84.98
54806;BME280;62866;55.776;37.496;2022-10-23T11:58:56;99353.25;;;6.81;85.08
54806;BME280;62866;55.776;37.496;2022-10-23T12:01:40;99348.72;;;6.90;84.94
54806;BME280;62866;55.776;37.496;2022-10-23T12:07:14;99341.03;;;6.95;84.68
54806;BME280;62866;55.776;37.496;2022-10-23T12:09:39;99330.78;;;6.92;84.87
54806;BME280;62866;55.776;37.496;2022-10-23T12:14:38;99330.78;;;6.92;84.72
54806;BME280;62866;55.776;37.496;2022-10-23T12:20:00;99316.22;;;6.79;84.99
54806;BME280;62866;55.776;37.496;2022-10-23T12:22:33;99348.56;;;6.91;85.14
54806;BME280;62866;55.776;37.496;2022-10-23T12:30:44;99344.47;;;7.03;84.76
54806;BME280;62866;55.776;37.496;2022-10-23T12:33:22;99342.34;;;6.99;84.75
54806;BME280;62866;55.776;37.496;2022-10-23T12:38:38;99339.97;;;7.04;85.00
54806;BME280;62866;55.776;37.496;2022-10-23T12:41:12;99330.56;;;7.01;84.94
54806;BME280;62866;55.776;37.496;2022-10-23T12:43:39;99329.78;;;6.93;84.75
54806;BME280;62866;55.776;37.496;2022-10-23T12:46:21;99331.59;;;6.92;85.12
54806;BME280;62866;55.776;37.496;2022-10-23T12:48:51;99321.63;;;6.94;85.59
54806;BME280;62866;55.776;37.496;2022-10-23T12:51:23;99322.56;;;7.01;85.18
54806;BME280;62866;55.776;37.496;2022-10-23T12:53:49;99318.25;;;7.00;84.88
54806;BME280;62866;55.776;37.496;2022-10-23T12:56:15;99323.75;;;6.99;85.17
54806;BME280;62866;55.776;37.496;2022-10-23T12:58:49;99319.16;;;6.93;85.14
54806;BME280;62866;55.776;37.496;2022-10-23T13:01:33;99307.53;;;6.94;85.33
54806;BME280;62866;55.776;37.496;2022-10-23T13:06:46;99303.72;;;6.88;85.69
54806;BME280;62866;55.776;37.496;2022-10-23T13:09:23;99301.38;;;6.93;85.68
54806;BME280;62866;55.776;37.496;2022-10-23T13:11:50;99309.16;;;6.95;85.88
54806;BME280;62866;55.776;37.496;2022-10-23T13:14:35;99297.94;;;6.84;86.11
54806;BME280;62866;55.776;37.496;2022-10-23T13:17:09;99301.59;;;6.83;86.36
54806;BME280;62866;55.776;37.496;2022-10-23T13:19:35;99291.16;;;6.82;86.17
54806;BME280;62866;55.776;37.496;2022-10-23T13:22:23;99294.81;;;6.81;86.07
54806;BME280;62866;55.776;37.496;2022-10-23T13:24:49;99294.63;;;6.82;86.56
54806;BME280;62866;55.776;37.496;2022-10-23T13:27:44;99289.84;;;6.78;86.74
54806;BME280;62866;55.776;37.496;2022-10-23T13:30:30;99266.69;;;6.64;86.94
54806;BME280;62866;55.776;37.496;2022-10-23T13:32:55;99289.50;;;6.81;86.94
54806;BME280;62866;55.776;37.496;2022-10-23T13:35:22;99287.50;;;6.83;87.17
54806;BME280;62866;55.776;37.496;2022-10-23T13:37:48;99286.13;;;6.87;87.12
54806;BME280;62866;55.776;37.496;2022-10-23T13:40:26;99282.84;;;6.85;87.33
54806;BME280;62866;55.776;37.496;2022-10-23T13:42:53;99290.03;;;6.76;87.64
54806;BME280;62866;55.776;37.496;2022-10-23T13:45:22;99286.19;;;6.79;87.66
54806;BME280;62866;55.776;37.496;2022-10-23T13:47:49;99272.72;;;6.80;87.74
54806;BME280;62866;55.776;37.496;2022-10-23T13:50:15;99276.03;;;6.82;87.57
54806;BME280;62866;55.776;37.496;2022-10-23T13:52:40;99266.28;;;6.75;87.97
54806;BME280;62866;55.776;37.496;2022-10-23T13:55:32;99276.75;;;6.76;89.00
54806;BME280;62866;55.776;37.496;2022-10-23T13:57:58;99274.19;;;6.83;88.56
54806;BME280;62866;55.776;37.496;2022-10-23T14:00:24;99274.88;;;6.85;88.67
54806;BME280;62866;55.776;37.496;2022-10-23T14:02:49;99249.97;;;6.78;88.19
54806;BME280;62866;55.776;37.496;2022-10-23T14:05:15;99251.34;;;6.74;88.40
54806;BME280;62866;55.776;37.496;2022-10-23T14:07:40;99266.56;;;6.80;88.69
54806;BME280;62866;55.776;37.496;2022-10-23T14:10:06;99270.38;;;6.85;88.77
54806;BME280;62866;55.776;37.496;2022-10-23T14:12:39;99255.25;;;6.86;88.37
54806;BME280;62866;55.776;37.496;2022-10-23T14:15:05;99253.22;;;6.88;88.17
54806;BME280;62866;55.776;37.496;2022-10-23T14:17:31;99264.16;;;6.93;88.27
54806;BME280;62866;55.776;37.496;2022-10-23T14:19:58;99251.06;;;6.92;88.45
54806;BME280;62866;55.776;37.496;2022-10-23T14:22:23;99262.50;;;6.92;88.54
54806;BME280;62866;55.776;37.496;2022-10-23T14:24:49;99263.50;;;6.91;88.90
54806;BME280;62866;55.776;37.496;2022-10-23T14:27:14;99261.19;;;6.88;88.97
54806;BME280;62866;55.776;37.496;2022-10-23T14:29:40;99249.75;;;6.88;88.92
54806;BME280;62866;55.776;37.496;2022-10-23T14:32:06;99241.16;;;6.85;89.11
54806;BME280;62866;55.776;37.496;2022-10-23T14:34:32;99247.56;;;6.91;89.26
54806;BME280;62866;55.776;37.496;2022-10-23T14:36:57;99238.88;;;6.97;89.34
54806;BME280;62866;55.776;37.496;2022-10-23T14:39:23;99244.00;;;6.99;89.46
54806;BME280;62866;55.776;37.496;2022-10-23T14:41:48;99236.59;;;6.94;89.47
54806;BME280;62866;55.776;37.496;2022-10-23T14:44:14;99245.94;;;7.05;89.15
54806;BME280;62866;55.776;37.496;2022-10-23T14:46:39;99241.63;;;7.04;89.29
54806;BME280;62866;55.776;37.496;2022-10-23T14:49:05;99240.53;;;6.98;89.47
54806;BME280;62866;55.776;37.496;2022-10-23T14:51:31;99236.22;;;6.97;89.61
54806;BME280;62866;55.776;37.496;2022-10-23T14:54:01;99234.22;;;6.99;89.52
54806;BME280;62866;55.776;37.496;2022-10-23T14:56:28;99231.06;;;6.96;89.66
54806;BME280;62866;55.776;37.496;2022-10-23T14:58:54;99226.97;;;6.93;89.67
54806;BME280;62866;55.776;37.496;2022-10-23T15:01:30;99226.59;;;6.96;90.09
54806;BME280;62866;55.776;37.496;2022-10-23T15:03:55;99223.31;;;6.94;90.25
54806;BME280;62866;55.776;37.496;2022-10-23T15:06:21;99222.66;;;6.92;90.37
54806;BME280;62866;55.776;37.496;2022-10-23T15:08:52;99213.31;;;6.96;90.35
54806;BME280;62866;55.776;37.496;2022-10-23T15:11:22;99218.25;;;6.99;90.29
54806;BME280;62866;55.776;37.496;2022-10-23T15:13:48;99217.78;;;6.96;90.40